Time;durP1;ratioP1;P1;durP2;ratioP2;P2;SDS_P1;SDS_P2;PMS_P1;PMS_P2;Temp;Humidity;BMP_temperature;BMP_pressure;BME280_temperature;BME280_humidity;BME280_pressure;Samples;Min_cycle;Max_cycle;Signal;HPM_P1;HPM_P2
2022/07/20 00:01:40;;;;;;;6.22;1.52;;;;;;;17.04;62.21;98858.59;4954866;28;20074;-76
2022/07/20 00:04:06;;;;;;;3.63;1.20;;;;;;;17.05;62.93;98868.34;4969615;28;20050;-75
2022/07/20 00:06:32;;;;;;;5.55;1.35;;;;;;;17.00;63.14;98881.56;4969668;28;20058;-76
2022/07/20 00:11:42;;;;;;;4.78;1.30;;;;;;;17.10;62.33;98876.75;4954758;28;20066;-76
2022/07/20 00:14:08;;;;;;;1.50;1.40;;;;;;;17.08;62.82;98878.81;4937510;29;20074;-76
2022/07/20 00:16:35;;;;;;;1.60;1.50;;;;;;;17.09;62.42;98880.47;4969977;28;20051;-76
2022/07/20 00:19:01;;;;;;;9.00;1.42;;;;;;;17.09;62.83;98885.88;4969493;28;20509;-76
2022/07/20 00:21:27;;;;;;;2.80;1.40;;;;;;;16.97;63.12;98871.09;4921443;29;20063;-77
2022/07/20 00:23:54;;;;;;;3.22;1.60;;;;;;;17.05;62.94;98883.72;4954969;28;20055;-75
2022/07/20 00:26:20;;;;;;;3.80;1.48;;;;;;;17.07;62.88;98887.06;4970333;28;20049;-75
2022/07/20 00:28:46;;;;;;;4.32;1.40;;;;;;;17.12;62.93;98890.94;4969651;28;20043;-76
2022/07/20 00:31:12;;;;;;;2.50;1.52;;;;;;;17.13;62.81;98889.91;4954830;28;20201;-76
2022/07/20 00:33:38;;;;;;;5.57;1.70;;;;;;;17.14;62.22;98867.28;4969459;28;20047;-75
2022/07/20 00:36:04;;;;;;;2.90;1.27;;;;;;;17.22;62.45;98885.31;4969590;28;20059;-75
2022/07/20 00:38:30;;;;;;;6.63;1.80;;;;;;;17.29;62.35;98886.28;4953100;29;20105;-76
2022/07/20 00:40:55;;;;;;;9.35;2.30;;;;;;;17.35;62.01;98884.75;4954731;28;20118;-78
2022/07/20 00:43:21;;;;;;;4.28;1.70;;;;;;;17.30;61.84;98882.59;4953543;29;20042;-76
2022/07/20 00:45:47;;;;;;;3.50;1.67;;;;;;;17.34;61.90;98893.84;4954585;28;20474;-76
2022/07/20 00:48:13;;;;;;;3.80;1.85;;;;;;;17.29;61.67;98891.69;4969258;28;20050;-77
2022/07/20 00:50:39;;;;;;;2.65;1.88;;;;;;;17.26;61.88;98891.19;4954307;28;20039;-77
2022/07/20 00:53:06;;;;;;;12.85;1.90;;;;;;;17.26;61.92;98892.03;4969123;28;20042;-76
2022/07/20 00:55:32;;;;;;;3.80;1.80;;;;;;;17.28;62.29;98889.19;4956516;29;20074;-76
2022/07/20 00:57:58;;;;;;;1.80;1.70;;;;;;;17.40;61.86;98895.84;4958035;28;20085;-76
2022/07/20 01:00:24;;;;;;;4.30;1.63;;;;;;;17.35;61.32;98895.56;4972734;28;20529;-76
2022/07/20 01:02:50;;;;;;;3.17;1.40;;;;;;;17.35;61.66;98906.38;4957926;28;20043;-75
2022/07/20 01:05:16;;;;;;;3.40;1.50;;;;;;;17.40;61.74;98915.59;4956874;29;20046;-76
2022/07/20 01:07:44;;;;;;;1.60;1.50;;;;;;;17.31;62.12;98918.53;4957130;29;20039;-76
2022/07/20 01:10:11;;;;;;;2.80;1.47;;;;;;;17.25;62.20;98917.38;4956546;29;20139;-76
2022/07/20 01:12:38;;;;;;;4.53;1.77;;;;;;;17.26;62.19;98913.66;4956744;29;20051;-75
2022/07/20 01:15:07;;;;;;;4.75;1.90;;;;;;;17.32;61.73;98912.13;4972517;28;20054;-76
2022/07/20 01:17:33;;;;;;;4.70;2.17;;;;;;;17.33;62.02;98909.22;4957511;28;20043;-75
2022/07/20 01:19:59;;;;;;;4.78;2.20;;;;;;;17.42;61.72;98897.38;4956466;29;20066;-75
2022/07/20 01:22:25;;;;;;;6.80;2.35;;;;;;;17.46;61.20;98887.06;4956069;29;20059;-74
2022/07/20 01:24:51;;;;;;;2.83;2.08;;;;;;;17.54;61.63;98897.81;4956200;29;20047;-75
2022/07/20 01:27:16;;;;;;;2.83;2.05;;;;;;;17.65;60.87;98894.69;4957404;28;20131;-77
2022/07/20 01:29:42;;;;;;;5.60;2.70;;;;;;;17.68;60.85;98901.63;4972242;28;20043;-75
2022/07/20 01:32:08;;;;;;;5.80;2.33;;;;;;;17.81;60.73;98901.03;4940073;29;20397;-75
2022/07/20 01:34:34;;;;;;;4.85;1.95;;;;;;;17.79;60.41;98886.84;4971932;28;20131;-75
2022/07/20 01:37:00;;;;;;;1.92;1.42;;;;;;;17.75;60.83;98880.09;4972197;28;20142;-75
2022/07/20 01:39:26;;;;;;;2.17;1.73;;;;;;;17.77;60.45;98878.09;4972216;28;20524;-76
2022/07/20 01:41:53;;;;;;;4.03;1.75;;;;;;;17.72;60.57;98882.16;4955975;29;20110;-76
2022/07/20 01:44:22;;;;;;;2.85;1.35;;;;;;;17.68;61.09;98880.00;4955916;29;20035;-76
2022/07/20 01:46:49;;;;;;;4.20;1.30;;;;;;;17.72;60.39;98865.94;4971956;28;20075;-75
2022/07/20 01:49:16;;;;;;;1.33;1.23;;;;;;;17.73;60.80;98867.59;4956074;29;20051;-76
2022/07/20 01:51:43;;;;;;;5.88;1.35;;;;;;;17.85;60.41;98872.63;4971749;28;20061;-75
2022/07/20 01:54:09;;;;;;;6.07;2.05;;;;;;;17.82;60.40;98872.97;4956973;28;20039;-75
2022/07/20 01:56:35;;;;;;;2.92;1.13;;;;;;;17.78;60.50;98879.78;4923835;29;20043;-74
2022/07/20 01:59:01;;;;;;;1.48;1.38;;;;;;;17.77;60.45;98881.63;4956783;28;20058;-75
2022/07/20 02:01:27;;;;;;;4.90;1.40;;;;;;;17.78;60.46;98863.56;4971530;28;20490;-75
2022/07/20 02:03:53;;;;;;;12.00;1.70;;;;;;;17.84;60.63;98884.47;4971512;28;20052;-73
2022/07/20 02:06:18;;;;;;;4.57;1.50;;;;;;;17.71;60.53;98863.38;4955988;28;20050;-75
2022/07/20 02:08:44;;;;;;;1.23;1.15;;;;;;;17.89;60.51;98887.47;4955583;29;20519;-75
2022/07/20 02:11:10;;;;;;;2.47;1.58;;;;;;;17.88;60.77;98891.19;4971639;28;20047;-76
2022/07/20 02:13:37;;;;;;;6.38;1.38;;;;;;;17.94;60.50;98885.91;4971484;28;20410;-76
2022/07/20 02:16:15;;;;;;;1.48;1.38;;;;;;;17.93;60.72;98889.63;4956243;29;20047;-75
2022/07/20 02:18:49;;;;;;;3.78;1.50;;;;;;;17.91;61.07;98896.25;4939300;29;20086;-75
2022/07/20 02:21:17;;;;;;;4.57;1.40;;;;;;;17.89;61.36;98898.28;4971443;28;20055;-77
2022/07/20 02:23:44;;;;;;;1.45;1.30;;;;;;;17.96;61.34;98899.25;4956390;28;20062;-77
2022/07/20 02:26:10;;;;;;;1.27;1.17;;;;;;;18.07;61.29;98904.22;4970737;28;20134;-76
2022/07/20 02:28:36;;;;;;;4.03;1.30;;;;;;;18.11;60.99;98910.94;4938788;29;20130;-75
2022/07/20 02:31:03;;;;;;;3.92;1.30;;;;;;;17.98;61.67;98924.25;4971670;28;20070;-75
2022/07/20 02:33:29;;;;;;;7.25;2.00;;;;;;;17.95;61.73;98913.78;4970973;28;20082;-75
2022/07/20 02:35:55;;;;;;;2.55;1.60;;;;;;;18.03;61.81;98908.31;4938940;29;20070;-75
2022/07/20 02:38:21;;;;;;;2.80;1.60;;;;;;;18.04;61.72;98912.69;4970712;28;20050;-76
2022/07/20 02:40:47;;;;;;;3.95;1.38;;;;;;;18.02;61.91;98919.31;4956472;28;20391;-77
2022/07/20 02:43:13;;;;;;;2.45;1.45;;;;;;;18.14;61.99;98916.00;4970886;28;20059;-76
2022/07/20 02:45:39;;;;;;;4.75;1.90;;;;;;;18.33;61.70;98921.94;4956540;28;20051;-77
2022/07/20 02:48:05;;;;;;;4.90;1.60;;;;;;;18.45;61.36;98912.34;4954788;29;20050;-77
2022/07/20 02:50:41;;;;;;;7.38;1.58;;;;;;;18.43;61.71;98917.94;4954677;29;20171;-77
2022/07/20 02:53:11;;;;;;;8.70;1.60;;;;;;;18.60;61.58;98921.31;4938858;29;20051;-77
2022/07/20 02:55:38;;;;;;;3.72;1.80;;;;;;;18.62;61.43;98915.75;4954618;29;20047;-77
2022/07/20 02:58:04;;;;;;;5.45;1.70;;;;;;;18.63;61.48;98920.97;4944334;28;20077;-80
2022/07/20 03:00:30;;;;;;;5.38;1.70;;;;;;;18.68;61.63;98926.66;4973879;28;20050;-77
2022/07/20 03:02:56;;;;;;;4.40;1.52;;;;;;;18.74;61.39;98917.00;4957719;28;20053;-74
2022/07/20 03:05:22;;;;;;;9.90;2.08;;;;;;;18.85;61.59;98919.25;4973750;28;20038;-76
2022/07/20 03:07:48;;;;;;;6.25;1.58;;;;;;;18.98;61.14;98924.00;4974823;28;20517;-75
2022/07/20 03:10:15;;;;;;;5.15;1.45;;;;;;;19.00;61.07;98923.84;4974762;28;20050;-75
2022/07/20 03:12:40;;;;;;;2.42;1.40;;;;;;;19.06;60.92;98917.66;4989946;28;20053;-74
2022/07/20 03:15:07;;;;;;;7.55;1.70;;;;;;;19.27;60.18;98906.88;4975062;28;20042;-75
2022/07/20 03:17:50;;;;;;;4.45;1.67;;;;;;;19.46;59.60;98907.31;4989510;28;20054;-75
2022/07/20 03:20:25;;;;;;;6.35;1.50;;;;;;;19.47;59.13;98899.00;4973320;28;20038;-75
2022/07/20 03:22:51;;;;;;;5.32;1.65;;;;;;;19.47;59.70;98904.41;4973071;28;20059;-75
2022/07/20 03:25:18;;;;;;;1.70;1.60;;;;;;;19.55;59.00;98898.88;4974886;28;20065;-74
2022/07/20 03:27:44;;;;;;;2.42;1.60;;;;;;;19.68;58.90;98908.25;4989298;28;20050;-75
2022/07/20 03:30:11;;;;;;;2.72;1.38;;;;;;;19.80;58.69;98895.84;4973355;28;20062;-75
2022/07/20 03:32:37;;;;;;;4.85;1.70;;;;;;;19.87;58.68;98894.88;4956891;28;20499;-75
2022/07/20 03:35:03;;;;;;;2.25;1.52;;;;;;;20.10;58.06;98902.81;4974152;28;20051;-75
2022/07/20 03:37:29;;;;;;;6.60;1.95;;;;;;;20.09;58.14;98903.84;4973055;28;20053;-76
2022/07/20 03:39:55;;;;;;;3.42;1.50;;;;;;;20.05;58.12;98894.44;4973272;28;20043;-75
2022/07/20 03:42:21;;;;;;;5.55;1.70;;;;;;;20.20;57.51;98904.34;4973300;28;20085;-75
2022/07/20 03:44:47;;;;;;;6.07;1.73;;;;;;;20.12;58.02;98908.91;4972841;28;20517;-78
2022/07/20 03:47:13;;;;;;;2.85;1.65;;;;;;;20.13;57.86;98904.31;4972945;28;20513;-75
2022/07/20 03:49:39;;;;;;;4.72;1.92;;;;;;;20.29;57.48;98903.19;4973935;28;20038;-76
2022/07/20 03:52:05;;;;;;;10.85;2.95;;;;;;;20.47;57.30;98902.72;4989182;28;20490;-76
2022/07/20 03:54:31;;;;;;;11.93;2.65;;;;;;;20.69;56.97;98898.09;4973259;28;20089;-76
2022/07/20 03:56:57;;;;;;;5.88;2.15;;;;;;;20.88;56.21;98891.13;4987731;28;20055;-76
2022/07/20 03:59:22;;;;;;;8.93;2.45;;;;;;;20.97;55.77;98898.91;4973787;28;20129;-75
2022/07/20 04:01:48;;;;;;;6.70;2.22;;;;;;;21.08;55.52;98895.59;4972527;28;20497;-75
2022/07/20 04:04:14;;;;;;;4.90;2.30;;;;;;;21.25;55.17;98892.53;4973680;28;20042;-74
2022/07/20 04:06:40;;;;;;;10.23;2.28;;;;;;;21.33;54.89;98895.97;4989166;28;20105;-74
2022/07/20 04:09:06;;;;;;;13.80;2.65;;;;;;;21.47;54.44;98891.41;4973848;28;20509;-74
2022/07/20 04:11:31;;;;;;;5.70;1.92;;;;;;;21.51;53.98;98887.25;4972406;28;20042;-75
2022/07/20 04:13:57;;;;;;;4.07;2.28;;;;;;;21.73;53.78;98889.81;4972621;28;20039;-74
2022/07/20 04:16:23;;;;;;;5.18;2.28;;;;;;;21.80;53.69;98893.38;4972722;28;20125;-74
2022/07/20 04:18:49;;;;;;;6.70;2.10;;;;;;;21.87;53.45;98887.97;4972310;28;20558;-75
2022/07/20 04:21:15;;;;;;;9.77;2.08;;;;;;;21.92;53.34;98894.44;4972166;28;20086;-75
2022/07/20 04:23:41;;;;;;;3.97;2.13;;;;;;;21.93;52.63;98890.72;4972823;28;20057;-75
2022/07/20 04:26:07;;;;;;;8.77;2.05;;;;;;;22.10;52.92;98895.75;4972794;28;20054;-76
2022/07/20 04:28:33;;;;;;;3.45;1.90;;;;;;;22.19;52.88;98909.00;4974400;28;20046;-75
2022/07/20 04:30:58;;;;;;;4.85;2.25;;;;;;;22.09;53.00;98897.63;4976438;28;20061;-76
2022/07/20 04:33:24;;;;;;;7.22;1.98;;;;;;;22.16;53.17;98900.41;4976274;28;20129;-76
2022/07/20 04:35:50;;;;;;;7.10;2.25;;;;;;;22.15;52.94;98898.69;4992785;28;20395;-74
2022/07/20 04:38:17;;;;;;;4.45;2.25;;;;;;;22.20;52.67;98909.81;4977609;28;20039;-74
2022/07/20 04:40:44;;;;;;;2.92;2.42;;;;;;;22.26;52.83;98900.81;4976409;28;20202;-75
2022/07/20 04:43:10;;;;;;;6.88;2.08;;;;;;;22.30;52.52;98896.59;4992591;28;20042;-74
2022/07/20 04:45:36;;;;;;;7.90;2.28;;;;;;;22.32;52.34;98894.53;4977372;28;20058;-76
2022/07/20 04:48:02;;;;;;;3.65;2.20;;;;;;;22.34;52.67;98891.59;4992440;28;20042;-76
2022/07/20 04:50:28;;;;;;;6.82;2.20;;;;;;;22.50;52.25;98875.69;4992106;28;20043;-76
2022/07/20 04:52:54;;;;;;;6.60;1.98;;;;;;;22.82;51.02;98884.00;4977216;28;20405;-74
2022/07/20 04:55:20;;;;;;;6.03;1.98;;;;;;;22.84;50.09;98881.91;4977152;28;20398;-75
2022/07/20 04:57:46;;;;;;;7.25;2.42;;;;;;;22.88;50.29;98894.06;4991890;28;20046;-75
2022/07/20 05:00:13;;;;;;;5.50;1.90;;;;;;;22.95;49.68;98888.63;4991892;28;20125;-75
2022/07/20 05:02:39;;;;;;;2.75;1.92;;;;;;;23.31;49.24;98890.78;4992001;28;20043;-74
2022/07/20 05:05:05;;;;;;;3.65;2.00;;;;;;;23.37;48.83;98881.75;4975661;28;20065;-75
2022/07/20 05:07:31;;;;;;;4.30;1.98;;;;;;;23.36;45.23;98879.25;4977226;28;20039;-75
2022/07/20 05:09:57;;;;;;;2.10;1.77;;;;;;;23.33;46.48;98879.69;4975631;28;20054;-75
2022/07/20 05:12:23;;;;;;;2.13;1.75;;;;;;;23.35;45.84;98874.84;4992050;28;20043;-76
2022/07/20 05:14:49;;;;;;;2.65;1.90;;;;;;;23.22;46.20;98883.91;4975314;28;20039;-76
2022/07/20 05:17:17;;;;;;;2.25;1.88;;;;;;;23.06;46.73;98878.97;4976759;28;20387;-76
2022/07/20 05:19:43;;;;;;;5.10;1.75;;;;;;;23.05;45.94;98889.00;4991950;28;20445;-76
2022/07/20 05:22:09;;;;;;;4.78;1.58;;;;;;;23.09;45.28;98879.34;4991556;28;20067;-75
2022/07/20 05:24:34;;;;;;;2.97;1.30;;;;;;;23.36;45.16;98882.00;4975324;28;20042;-74
2022/07/20 05:27:00;;;;;;;7.15;1.70;;;;;;;23.29;44.90;98876.56;4991445;28;20121;-74
2022/07/20 05:29:26;;;;;;;8.75;1.80;;;;;;;23.43;45.62;98875.44;4975604;28;20398;-75
2022/07/20 05:31:52;;;;;;;4.47;1.70;;;;;;;23.68;45.25;98871.97;4975083;28;20348;-76
2022/07/20 05:34:17;;;;;;;10.18;1.70;;;;;;;23.81;43.49;98871.91;4959194;28;20074;-75
2022/07/20 05:36:43;;;;;;;6.90;1.70;;;;;;;23.95;42.57;98870.75;4976617;28;20094;-75
2022/07/20 05:39:09;;;;;;;1.58;1.40;;;;;;;24.07;42.15;98870.03;4991302;28;20050;-75
2022/07/20 05:41:36;;;;;;;1.70;1.60;;;;;;;24.08;42.41;98871.72;4975522;28;20093;-75
2022/07/20 05:44:02;;;;;;;1.73;1.60;;;;;;;24.07;42.62;98859.09;4991361;28;20046;-74
2022/07/20 05:46:28;;;;;;;2.92;1.73;;;;;;;23.73;43.49;98869.41;4976058;28;20105;-76
2022/07/20 05:48:54;;;;;;;4.07;1.60;;;;;;;23.33;44.27;98875.06;4975068;28;20047;-76
2022/07/20 05:51:20;;;;;;;5.90;1.70;;;;;;;23.25;45.16;98873.41;4991728;28;20428;-76
2022/07/20 05:53:45;;;;;;;5.15;1.83;;;;;;;23.32;45.23;98862.50;4975207;28;20082;-77
2022/07/20 05:56:11;;;;;;;5.30;1.50;;;;;;;23.42;44.14;98871.03;4975016;28;20486;-75
2022/07/20 05:58:38;;;;;;;3.15;1.55;;;;;;;23.66;44.44;98871.34;4976048;28;20561;-76
2022/07/20 06:01:04;;;;;;;2.13;1.67;;;;;;;23.85;42.76;98883.22;4990941;28;20421;-76
2022/07/20 06:03:30;;;;;;;6.80;1.42;;;;;;;23.91;42.57;98868.69;4975841;28;20414;-74
2022/07/20 06:05:56;;;;;;;4.88;1.50;;;;;;;23.83;42.05;98875.25;4974747;28;20104;-76
2022/07/20 06:08:22;;;;;;;2.50;1.90;;;;;;;24.18;42.53;98866.56;4990851;28;20046;-76
2022/07/20 06:10:47;;;;;;;3.28;1.48;;;;;;;24.43;41.55;98867.44;4974671;28;20038;-74
2022/07/20 06:13:14;;;;;;;5.50;1.60;;;;;;;24.67;41.25;98860.31;4975798;28;20054;-75
2022/07/20 06:15:40;;;;;;;8.98;1.60;;;;;;;24.79;40.94;98874.06;4990612;28;20598;-75
2022/07/20 06:18:07;;;;;;;6.50;1.50;;;;;;;24.39;41.40;98865.41;4975994;28;20489;-75
2022/07/20 06:20:32;;;;;;;5.70;1.75;;;;;;;24.11;41.85;98868.53;4974141;28;20051;-74
2022/07/20 06:22:58;;;;;;;11.52;1.80;;;;;;;24.13;41.88;98866.41;4975740;28;20070;-77
2022/07/20 06:25:25;;;;;;;6.00;1.75;;;;;;;24.06;40.94;98873.81;4974417;28;20139;-76
2022/07/20 06:27:50;;;;;;;3.58;1.70;;;;;;;24.19;40.55;98863.66;4958298;28;20042;-76
2022/07/20 06:30:17;;;;;;;2.70;1.75;;;;;;;24.30;40.30;98858.50;4990454;28;20138;-76
2022/07/20 06:32:42;;;;;;;6.18;1.40;;;;;;;24.53;40.56;98847.00;4974576;28;20051;-76
2022/07/20 06:35:09;;;;;;;10.07;1.60;;;;;;;24.60;40.14;98861.44;4974231;28;20038;-76
2022/07/20 06:37:37;;;;;;;6.00;1.20;;;;;;;24.75;39.47;98839.19;4990556;28;20042;-76
2022/07/20 06:40:03;;;;;;;4.18;1.60;;;;;;;24.99;38.46;98832.81;4957808;28;20129;-75
2022/07/20 06:42:30;;;;;;;9.90;1.60;;;;;;;25.26;38.34;98854.41;4990441;28;20053;-75
2022/07/20 06:44:56;;;;;;;2.15;1.48;;;;;;;25.31;38.31;98836.25;4974573;28;20137;-76
2022/07/20 06:47:22;;;;;;;3.10;1.52;;;;;;;25.25;38.51;98861.78;4990467;28;20137;-76
2022/07/20 06:49:48;;;;;;;6.82;1.73;;;;;;;25.16;38.98;98847.59;4975344;28;20118;-75
2022/07/20 06:52:14;;;;;;;7.00;1.65;;;;;;;24.80;39.52;98848.38;4973536;28;20561;-76
2022/07/20 06:54:39;;;;;;;13.30;1.80;;;;;;;24.74;40.19;98838.34;4975075;28;20046;-76
2022/07/20 06:57:05;;;;;;;17.17;2.10;;;;;;;25.33;39.86;98836.84;4990069;28;20039;-75
2022/07/20 06:59:31;;;;;;;5.00;1.67;;;;;;;25.80;38.87;98842.53;4975421;28;20078;-77
2022/07/20 07:01:57;;;;;;;1.63;1.02;;;;;;;25.71;38.17;98843.06;4990323;28;20082;-76
2022/07/20 07:04:23;;;;;;;5.15;1.40;;;;;;;25.76;37.79;98835.81;4990145;28;20593;-76
2022/07/20 07:06:49;;;;;;;8.00;1.58;;;;;;;25.64;37.88;98843.16;4973812;28;20046;-75
2022/07/20 07:09:15;;;;;;;7.72;1.48;;;;;;;25.24;38.11;98835.50;4975028;28;20517;-76
2022/07/20 07:11:41;;;;;;;5.18;1.50;;;;;;;24.91;39.06;98844.91;4973556;28;20046;-75
2022/07/20 07:14:06;;;;;;;3.45;2.05;;;;;;;24.35;39.82;98845.84;4973655;28;20461;-76
2022/07/20 07:16:32;;;;;;;4.97;1.55;;;;;;;24.49;39.00;98843.03;4989549;28;20105;-75
2022/07/20 07:18:58;;;;;;;4.32;1.38;;;;;;;24.40;39.13;98826.91;4989738;28;20117;-76
2022/07/20 07:21:24;;;;;;;6.07;1.75;;;;;;;24.67;38.72;98840.31;4973159;28;20141;-75
2022/07/20 07:23:50;;;;;;;2.25;1.40;;;;;;;25.08;38.30;98838.81;4974748;28;20057;-75
2022/07/20 07:26:18;;;;;;;6.13;1.30;;;;;;;25.53;37.86;98830.25;4989647;28;20051;-75
2022/07/20 07:28:44;;;;;;;2.88;1.60;;;;;;;25.73;36.51;98830.81;4989884;28;20058;-75
2022/07/20 07:31:11;;;;;;;1.95;1.30;;;;;;;25.97;36.09;98825.44;4989519;28;20038;-75
2022/07/20 07:33:37;;;;;;;2.47;1.48;;;;;;;26.07;36.16;98821.03;4989288;28;20047;-75
2022/07/20 07:36:05;;;;;;;4.30;1.33;;;;;;;26.17;36.18;98823.19;4973258;28;20046;-75
2022/07/20 07:38:31;;;;;;;4.20;1.40;;;;;;;25.98;35.90;98821.63;4972891;28;20533;-75
2022/07/20 07:40:56;;;;;;;3.90;1.42;;;;;;;25.84;36.45;98816.38;4973105;28;20054;-75
2022/07/20 07:43:22;;;;;;;3.13;1.60;;;;;;;26.14;36.42;98820.94;4974316;28;20494;-74
2022/07/20 07:45:48;;;;;;;1.35;1.20;;;;;;;26.17;36.17;98823.19;4956870;28;20038;-75
2022/07/20 07:48:14;;;;;;;4.93;1.65;;;;;;;25.70;37.23;98809.38;4972662;28;20493;-76
2022/07/20 07:50:42;;;;;;;2.90;1.17;;;;;;;25.58;36.21;98817.56;4989305;28;20039;-75
2022/07/20 07:53:08;;;;;;;4.18;1.27;;;;;;;25.86;35.64;98814.22;4989069;28;20506;-76
2022/07/20 07:55:35;;;;;;;2.40;1.05;;;;;;;26.27;35.45;98814.41;4989432;28;20485;-74
2022/07/20 07:58:01;;;;;;;3.22;1.33;;;;;;;26.37;34.97;98804.50;4957106;28;20049;-76
2022/07/20 08:00:27;;;;;;;2.90;1.50;;;;;;;26.48;35.02;98807.50;4974128;28;20121;-75
2022/07/20 08:02:54;;;;;;;5.35;1.40;;;;;;;26.68;34.14;98801.66;4972111;28;20146;-76
2022/07/20 08:05:21;;;;;;;5.35;1.80;;;;;;;26.90;33.25;98789.00;4972575;28;20101;-75
2022/07/20 08:07:47;;;;;;;4.80;1.67;;;;;;;26.55;33.89;98787.13;4974072;28;20089;-76
2022/07/20 08:10:13;;;;;;;8.90;1.50;;;;;;;26.47;34.63;98787.47;4988917;28;20405;-76
2022/07/20 08:12:39;;;;;;;8.50;1.10;;;;;;;26.72;34.54;98779.00;4973946;28;20371;-76
2022/07/20 08:15:06;;;;;;;3.00;1.30;;;;;;;27.00;33.59;98766.41;4973879;28;20089;-76
2022/07/20 08:17:33;;;;;;;3.55;1.40;;;;;;;26.91;33.33;98770.63;4972597;28;20038;-75
2022/07/20 08:19:58;;;;;;;3.85;1.40;;;;;;;26.49;34.29;98773.56;4988701;28;20512;-75
2022/07/20 08:22:24;;;;;;;5.18;1.40;;;;;;;26.14;33.73;98771.63;4972423;28;20059;-75
2022/07/20 08:24:50;;;;;;;9.02;1.80;;;;;;;26.09;34.08;98774.22;4972645;28;20061;-76
2022/07/20 08:27:16;;;;;;;3.63;1.30;;;;;;;26.24;33.76;98790.22;4972456;28;20042;-75
2022/07/20 08:29:42;;;;;;;10.05;1.48;;;;;;;26.43;33.44;98760.78;4956858;28;20142;-75
2022/07/20 08:32:07;;;;;;;1.30;1.17;;;;;;;26.82;32.80;98767.44;4972552;28;20473;-75
2022/07/20 08:34:33;;;;;;;2.63;1.30;;;;;;;26.91;31.67;98773.34;4988672;28;20434;-76
2022/07/20 08:36:59;;;;;;;1.15;1.05;;;;;;;27.28;31.61;98771.94;4972546;28;20039;-76
2022/07/20 08:39:25;;;;;;;4.07;1.30;;;;;;;27.39;31.31;98763.91;4988357;28;20054;-75
2022/07/20 08:41:51;;;;;;;2.40;1.13;;;;;;;27.34;30.91;98768.25;4972493;28;20101;-75
2022/07/20 08:44:17;;;;;;;3.10;1.20;;;;;;;26.90;31.48;98775.28;4973915;28;20047;-76
2022/07/20 08:46:44;;;;;;;9.02;1.15;;;;;;;26.43;31.59;98777.22;4972276;28;20097;-76
2022/07/20 08:49:13;;;;;;;9.60;1.33;;;;;;;26.23;32.07;98772.94;4972397;28;20074;-75
2022/07/20 08:51:39;;;;;;;6.28;0.90;;;;;;;26.19;31.02;98785.44;4940253;28;20039;-77
2022/07/20 08:54:05;;;;;;;3.88;1.15;;;;;;;26.00;31.21;98767.44;4972279;28;20042;-75
2022/07/20 08:56:31;;;;;;;4.63;1.08;;;;;;;25.99;31.30;98777.56;4972471;28;20125;-76
2022/07/20 08:58:58;;;;;;;5.57;1.45;;;;;;;25.94;31.23;98776.59;4988635;28;20137;-76
2022/07/20 09:01:24;;;;;;;3.10;1.30;;;;;;;25.95;31.64;98779.09;4972277;28;20051;-76
2022/07/20 09:04:07;;;;;;;6.13;1.60;;;;;;;25.84;32.40;98777.16;4973720;28;20050;-75
2022/07/20 09:06:34;;;;;;;2.63;1.30;;;;;;;25.78;33.33;98792.66;4988672;28;20379;-77
2022/07/20 09:09:09;;;;;;;7.68;1.30;;;;;;;25.78;33.79;98773.47;4972330;28;20053;-76
2022/07/20 09:11:35;;;;;;;7.80;1.23;;;;;;;25.67;34.25;98783.31;4956246;28;20042;-74
2022/07/20 09:14:01;;;;;;;2.97;1.38;;;;;;;25.65;34.67;98779.97;4972347;28;20039;-76
2022/07/20 09:16:47;;;;;;;4.88;1.48;;;;;;;25.86;34.97;98791.47;4976769;28;20454;-76
2022/07/20 09:19:15;;;;;;;5.78;1.30;;;;;;;25.83;34.58;98775.50;4992635;28;20057;-76
2022/07/20 09:21:42;;;;;;;17.53;1.70;;;;;;;25.96;34.85;98788.16;4959374;28;20063;-75
2022/07/20 09:24:10;;;;;;;8.13;1.40;;;;;;;26.15;35.10;98774.13;4991453;28;20290;-75
2022/07/20 09:26:37;;;;;;;8.27;1.77;;;;;;;26.15;35.32;98774.13;4976051;28;20471;-74
2022/07/20 09:29:06;;;;;;;24.00;2.40;;;;;;;25.77;35.98;98777.28;4975347;28;20051;-76
2022/07/20 09:31:36;;;;;;;6.68;1.30;;;;;;;25.57;35.98;98771.25;4975376;28;20109;-75
2022/07/20 09:34:15;;;;;;;2.78;1.40;;;;;;;25.69;36.55;98780.34;4959639;28;20050;-75
2022/07/20 09:36:46;;;;;;;7.32;1.63;;;;;;;25.85;35.51;98785.16;4975994;28;20521;-76
2022/07/20 09:39:18;;;;;;;8.40;1.23;;;;;;;26.05;33.63;98782.09;4976083;28;20039;-76
2022/07/20 09:42:02;;;;;;;6.78;1.63;;;;;;;25.72;35.05;98789.97;4977049;28;20073;-78
2022/07/20 09:44:31;;;;;;;7.10;1.63;;;;;;;25.66;35.35;98781.63;4959823;28;20042;-76
2022/07/20 09:46:58;;;;;;;7.22;1.20;;;;;;;25.86;33.27;98780.53;4976020;28;20038;-75
2022/07/20 09:49:34;;;;;;;2.88;1.27;;;;;;;26.03;33.13;98769.72;4975387;28;20081;-76
2022/07/20 09:52:02;;;;;;;11.63;1.40;;;;;;;26.22;33.52;98771.28;4974945;28;20122;-78
2022/07/20 09:54:28;;;;;;;9.25;1.30;;;;;;;25.97;32.28;98784.34;4958853;28;20038;-76
2022/07/20 09:56:55;;;;;;;4.13;1.40;;;;;;;25.77;32.52;98785.47;4991292;28;20125;-77
2022/07/20 09:59:21;;;;;;;4.22;1.30;;;;;;;25.67;31.73;98777.00;4975035;28;20491;-75
2022/07/20 10:01:51;;;;;;;2.20;1.48;;;;;;;25.48;32.19;98791.81;4990807;28;20059;-75
2022/07/20 10:04:18;;;;;;;6.00;1.65;;;;;;;25.34;33.16;98772.84;4976021;28;20078;-75
2022/07/20 10:06:47;;;;;;;5.72;1.50;;;;;;;25.26;34.52;98778.66;4958606;28;20137;-74
2022/07/20 10:09:17;;;;;;;6.50;1.70;;;;;;;25.37;34.54;98774.28;4991317;28;20137;-76
2022/07/20 10:11:44;;;;;;;4.15;2.17;;;;;;;25.31;34.21;98767.88;4974685;28;20042;-74
2022/07/20 10:14:11;;;;;;;7.20;1.30;;;;;;;25.75;32.84;98779.38;4990638;28;20137;-75
2022/07/20 10:16:46;;;;;;;5.90;1.50;;;;;;;26.49;31.36;98773.56;4975491;28;20047;-74
2022/07/20 10:19:12;;;;;;;4.15;1.27;;;;;;;26.83;30.84;98756.22;4990976;28;20481;-76
2022/07/20 10:21:41;;;;;;;2.97;1.27;;;;;;;27.30;29.07;98766.22;4975331;28;20062;-76
2022/07/20 10:24:31;;;;;;;8.50;1.30;;;;;;;27.62;28.35;98755.56;4974390;28;20370;-75
2022/07/20 10:27:27;;;;;;;5.80;1.30;;;;;;;28.53;28.06;98755.38;4957864;28;20047;-75
2022/07/20 10:29:55;;;;;;;4.13;1.27;;;;;;;28.87;28.94;98741.53;4974285;28;20041;-75
2022/07/20 10:32:28;;;;;;;2.03;1.25;;;;;;;29.85;28.23;98749.75;4990632;28;20047;-75
2022/07/20 10:35:02;;;;;;;2.55;0.93;;;;;;;30.82;26.80;98725.59;4974656;28;20057;-76
2022/07/20 10:37:29;;;;;;;0.85;0.82;;;;;;;31.05;26.20;98747.19;4974335;28;20043;-76
2022/07/20 10:40:07;;;;;;;5.40;1.20;;;;;;;31.16;26.24;98735.09;4975443;28;20528;-75
2022/07/20 10:42:50;;;;;;;3.08;1.17;;;;;;;31.07;25.95;98728.44;4957911;28;20050;-75
2022/07/20 10:45:19;;;;;;;2.38;1.13;;;;;;;31.92;25.16;98742.69;4974328;28;20038;-76
2022/07/20 10:47:50;;;;;;;1.85;1.13;;;;;;;31.95;24.87;98737.72;4975084;28;20486;-75
2022/07/20 10:50:19;;;;;;;28.30;1.70;;;;;;;31.63;25.60;98736.88;4974061;28;20058;-76
2022/07/20 10:52:46;;;;;;;6.05;1.50;;;;;;;32.34;26.04;98762.84;4973663;28;20153;-75
2022/07/20 10:55:34;;;;;;;7.53;1.23;;;;;;;31.42;26.35;98771.09;4990342;28;20050;-77
2022/07/20 10:58:07;;;;;;;12.60;1.50;;;;;;;31.52;26.49;98751.78;4990393;28;20054;-77
2022/07/20 11:00:36;;;;;;;6.13;1.20;;;;;;;31.98;26.08;98753.78;4957776;28;20454;-75
2022/07/20 11:03:03;;;;;;;3.15;1.35;;;;;;;31.86;25.43;98737.47;4957678;28;20047;-76
2022/07/20 11:05:29;;;;;;;2.20;1.25;;;;;;;31.06;25.46;98740.56;4974059;28;20138;-75
2022/07/20 11:07:56;;;;;;;1.35;1.00;;;;;;;31.58;25.37;98750.66;4974990;28;20553;-76
2022/07/20 11:10:27;;;;;;;1.92;1.35;;;;;;;31.63;25.05;98725.81;4974039;28;20050;-75
2022/07/20 11:12:58;;;;;;;7.30;1.38;;;;;;;32.09;24.68;98745.19;4973900;28;20038;-75
2022/07/20 11:15:37;;;;;;;2.15;1.38;;;;;;;31.86;23.50;98746.59;4957570;28;20043;-75
2022/07/20 11:18:03;;;;;;;;;;;;;;;32.20;24.23;98734.94;4974210;28;20141;-75
2022/07/20 11:20:28;;;;;;;8.63;3.38;;;;;;;32.38;23.99;98733.50;4973554;28;20016;-75
2022/07/20 11:22:57;;;;;;;1.00;0.90;;;;;;;31.76;23.54;98737.44;4974796;28;20061;-74
2022/07/20 11:25:28;;;;;;;3.33;1.40;;;;;;;31.90;23.94;98725.56;4974126;28;20054;-75
2022/07/20 11:28:04;;;;;;;1.92;1.30;;;;;;;32.76;23.07;98734.84;4974407;28;20046;-75
2022/07/20 11:30:36;;;;;;;3.35;1.08;;;;;;;33.39;21.99;98720.38;4974594;28;20042;-75
2022/07/20 11:33:02;;;;;;;6.75;1.33;;;;;;;33.64;22.05;98713.88;4973276;28;20129;-76
2022/07/20 11:35:28;;;;;;;5.38;1.20;;;;;;;33.44;22.05;98725.06;4974515;28;20142;-75
2022/07/20 11:37:54;;;;;;;2.72;1.15;;;;;;;33.41;21.89;98734.78;4956881;28;20506;-74